sensor_id;sensor_type;location;lat;lon;timestamp;temperature;humidity
49052;DHT22;34866;48.670;18.260;2023-08-21T00:01:20;486.40;2380.80
49052;DHT22;34866;48.670;18.260;2023-08-21T00:03:46;461.70;2380.80
49052;DHT22;34866;48.670;18.260;2023-08-21T00:06:35;461.70;2380.80
49052;DHT22;34866;48.670;18.260;2023-08-21T00:09:02;461.70;2380.80
49052;DHT22;34866;48.670;18.260;2023-08-21T00:11:51;486.40;2380.80
49052;DHT22;34866;48.670;18.260;2023-08-21T00:14:23;486.50;2380.80
49052;DHT22;34866;48.670;18.260;2023-08-21T00:16:48;486.70;2380.80
49052;DHT22;34866;48.670;18.260;2023-08-21T00:19:30;486.70;2380.80
49052;DHT22;34866;48.670;18.260;2023-08-21T00:22:01;486.70;2380.80
49052;DHT22;34866;48.670;18.260;2023-08-21T00:24:30;486.80;2380.80
49052;DHT22;34866;48.670;18.260;2023-08-21T00:27:00;486.60;2380.80
49052;DHT22;34866;48.670;18.260;2023-08-21T00:29:27;486.60;2380.80
49052;DHT22;34866;48.670;18.260;2023-08-21T00:31:56;486.50;2380.80
49052;DHT22;34866;48.670;18.260;2023-08-21T00:34:23;486.50;2380.80
49052;DHT22;34866;48.670;18.260;2023-08-21T00:36:54;461.70;2380.80
49052;DHT22;34866;48.670;18.260;2023-08-21T00:39:47;461.70;2380.80
49052;DHT22;34866;48.670;18.260;2023-08-21T00:42:15;461.50;2022.40
49052;DHT22;34866;48.670;18.260;2023-08-21T00:44:44;461.50;2329.60
49052;DHT22;34866;48.670;18.260;2023-08-21T00:47:12;461.50;2380.80
49052;DHT22;34866;48.670;18.260;2023-08-21T00:49:42;461.40;2380.80
49052;DHT22;34866;48.670;18.260;2023-08-21T00:52:31;461.40;2380.80
49052;DHT22;34866;48.670;18.260;2023-08-21T00:54:57;461.30;2380.80
49052;DHT22;34866;48.670;18.260;2023-08-21T00:57:25;461.40;2380.80
49052;DHT22;34866;48.670;18.260;2023-08-21T00:59:54;461.50;2380.80
49052;DHT22;34866;48.670;18.260;2023-08-21T01:02:20;461.40;2380.80
49052;DHT22;34866;48.670;18.260;2023-08-21T01:04:47;461.50;2380.80
49052;DHT22;34866;48.670;18.260;2023-08-21T01:07:14;461.50;2380.80
49052;DHT22;34866;48.670;18.260;2023-08-21T01:10:04;461.50;2380.80
49052;DHT22;34866;48.670;18.260;2023-08-21T01:15:38;461.50;2124.80
49052;DHT22;34866;48.670;18.260;2023-08-21T01:18:26;461.30;1996.80
49052;DHT22;34866;48.670;18.260;2023-08-21T01:21:02;461.30;2380.80
49052;DHT22;34866;48.670;18.260;2023-08-21T01:23:49;461.30;2380.80
49052;DHT22;34866;48.670;18.260;2023-08-21T01:26:16;461.00;2380.80
49052;DHT22;34866;48.670;18.260;2023-08-21T01:28:44;461.00;2380.80
49052;DHT22;34866;48.670;18.260;2023-08-21T01:31:34;461.10;2380.80
49052;DHT22;34866;48.670;18.260;2023-08-21T01:34:09;461.20;2380.80
49052;DHT22;34866;48.670;18.260;2023-08-21T01:36:40;461.00;2380.80
49052;DHT22;34866;48.670;18.260;2023-08-21T01:39:28;461.00;2380.80
49052;DHT22;34866;48.670;18.260;2023-08-21T01:42:19;461.20;2380.80
49052;DHT22;34866;48.670;18.260;2023-08-21T01:44:52;461.20;2380.80
49052;DHT22;34866;48.670;18.260;2023-08-21T01:47:18;461.20;2380.80
49052;DHT22;34866;48.670;18.260;2023-08-21T01:49:50;461.20;2380.80
49052;DHT22;34866;48.670;18.260;2023-08-21T01:52:39;461.00;2380.80
49052;DHT22;34866;48.670;18.260;2023-08-21T01:55:08;461.00;2380.80
49052;DHT22;34866;48.670;18.260;2023-08-21T01:57:35;461.00;2380.80
49052;DHT22;34866;48.670;18.260;2023-08-21T02:00:23;461.10;2380.80
49052;DHT22;34866;48.670;18.260;2023-08-21T02:02:50;460.90;2380.80
49052;DHT22;34866;48.670;18.260;2023-08-21T02:05:19;460.90;2380.80
49052;DHT22;34866;48.670;18.260;2023-08-21T02:08:34;460.80;2380.80
49052;DHT22;34866;48.670;18.260;2023-08-21T02:11:22;460.80;2380.80
49052;DHT22;34866;48.670;18.260;2023-08-21T02:14:02;460.80;2380.80
49052;DHT22;34866;48.670;18.260;2023-08-21T02:16:28;436.10;2355.20
49052;DHT22;34866;48.670;18.260;2023-08-21T02:18:54;436.10;2355.20
49052;DHT22;34866;48.670;18.260;2023-08-21T02:21:20;436.10;2355.20
49052;DHT22;34866;48.670;18.260;2023-08-21T02:23:47;435.90;2355.20
49052;DHT22;34866;48.670;18.260;2023-08-21T02:26:36;435.80;2355.20
49052;DHT22;34866;48.670;18.260;2023-08-21T02:29:03;435.90;2355.20
49052;DHT22;34866;48.670;18.260;2023-08-21T02:31:35;436.00;2355.20
49052;DHT22;34866;48.670;18.260;2023-08-21T02:34:24;436.00;2355.20
49052;DHT22;34866;48.670;18.260;2023-08-21T02:36:54;435.70;2355.20
49052;DHT22;34866;48.670;18.260;2023-08-21T02:39:28;435.60;2355.20
49052;DHT22;34866;48.670;18.260;2023-08-21T02:41:57;435.60;2355.20
49052;DHT22;34866;48.670;18.260;2023-08-21T02:44:44;435.70;2355.20
49052;DHT22;34866;48.670;18.260;2023-08-21T02:47:16;435.80;2355.20
49052;DHT22;34866;48.670;18.260;2023-08-21T02:49:53;435.90;2355.20
49052;DHT22;34866;48.670;18.260;2023-08-21T02:52:32;435.90;2355.20
49052;DHT22;34866;48.670;18.260;2023-08-21T02:54:58;435.90;2355.20
49052;DHT22;34866;48.670;18.260;2023-08-21T02:58:04;435.90;2355.20
49052;DHT22;34866;48.670;18.260;2023-08-21T03:00:55;435.70;2355.20
49052;DHT22;34866;48.670;18.260;2023-08-21T03:04:03;435.80;2355.20
49052;DHT22;34866;48.670;18.260;2023-08-21T03:07:25;435.70;2355.20
49052;DHT22;34866;48.670;18.260;2023-08-21T03:10:17;435.80;2355.20
49052;DHT22;34866;48.670;18.260;2023-08-21T03:13:04;435.90;2355.20
49052;DHT22;34866;48.670;18.260;2023-08-21T03:15:52;435.90;2355.20
49052;DHT22;34866;48.670;18.260;2023-08-21T03:18:24;435.80;2355.20
49052;DHT22;34866;48.670;18.260;2023-08-21T03:21:13;435.60;2355.20
49052;DHT22;34866;48.670;18.260;2023-08-21T03:24:02;435.50;2355.20
49052;DHT22;34866;48.670;18.260;2023-08-21T03:27:25;435.50;2355.20
49052;DHT22;34866;48.670;18.260;2023-08-21T03:30:39;435.50;2355.20
49052;DHT22;34866;48.670;18.260;2023-08-21T03:33:34;435.60;2355.20
49052;DHT22;34866;48.670;18.260;2023-08-21T03:36:27;435.50;2355.20
49052;DHT22;34866;48.670;18.260;2023-08-21T03:39:07;435.50;2355.20
49052;DHT22;34866;48.670;18.260;2023-08-21T03:42:14;435.60;2355.20
49052;DHT22;34866;48.670;18.260;2023-08-21T03:45:02;435.70;2355.20
49052;DHT22;34866;48.670;18.260;2023-08-21T03:47:33;435.60;2355.20
49052;DHT22;34866;48.670;18.260;2023-08-21T03:50:22;435.40;2355.20
49052;DHT22;34866;48.670;18.260;2023-08-21T03:53:26;435.40;2355.20
49052;DHT22;34866;48.670;18.260;2023-08-21T03:56:34;435.40;2355.20
49052;DHT22;34866;48.670;18.260;2023-08-21T03:59:10;435.50;2355.20
49052;DHT22;34866;48.670;18.260;2023-08-21T04:02:06;435.60;2355.20
49052;DHT22;34866;48.670;18.260;2023-08-21T04:04:36;435.60;2355.20
49052;DHT22;34866;48.670;18.260;2023-08-21T04:07:29;435.70;2355.20
49052;DHT22;34866;48.670;18.260;2023-08-21T04:10:18;435.60;2355.20
49052;DHT22;34866;48.670;18.260;2023-08-21T04:16:40;435.60;2355.20
49052;DHT22;34866;48.670;18.260;2023-08-21T04:20:05;435.70;2355.20
49052;DHT22;34866;48.670;18.260;2023-08-21T04:23:09;435.80;2355.20
49052;DHT22;34866;48.670;18.260;2023-08-21T04:26:04;435.80;2355.20
49052;DHT22;34866;48.670;18.260;2023-08-21T04:28:36;436.00;2355.20
49052;DHT22;34866;48.670;18.260;2023-08-21T04:31:29;436.10;2355.20
49052;DHT22;34866;48.670;18.260;2023-08-21T04:33:56;460.80;2380.80
49052;DHT22;34866;48.670;18.260;2023-08-21T04:37:06;461.00;2380.80
49052;DHT22;34866;48.670;18.260;2023-08-21T04:39:35;461.10;2380.80
49052;DHT22;34866;48.670;18.260;2023-08-21T04:42:27;461.20;2380.80
49052;DHT22;34866;48.670;18.260;2023-08-21T04:44:56;461.30;2380.80
49052;DHT22;34866;48.670;18.260;2023-08-21T04:47:25;461.30;2380.80
49052;DHT22;34866;48.670;18.260;2023-08-21T04:49:56;461.40;2380.80
49052;DHT22;34866;48.670;18.260;2023-08-21T04:52:24;461.40;2380.80
49052;DHT22;34866;48.670;18.260;2023-08-21T04:54:51;461.50;2380.80
49052;DHT22;34866;48.670;18.260;2023-08-21T04:57:17;461.50;2380.80
49052;DHT22;34866;48.670;18.260;2023-08-21T04:59:45;461.50;2380.80
49052;DHT22;34866;48.670;18.260;2023-08-21T05:02:15;461.50;2380.80
49052;DHT22;34866;48.670;18.260;2023-08-21T05:04:42;461.50;2380.80
49052;DHT22;34866;48.670;18.260;2023-08-21T05:07:08;461.60;2380.80
49052;DHT22;34866;48.670;18.260;2023-08-21T05:09:37;461.70;2380.80
49052;DHT22;34866;48.670;18.260;2023-08-21T05:12:48;486.50;2380.80
49052;DHT22;34866;48.670;18.260;2023-08-21T05:15:17;486.60;2380.80
49052;DHT22;34866;48.670;18.260;2023-08-21T05:18:29;486.80;2380.80
49052;DHT22;34866;48.670;18.260;2023-08-21T05:21:23;486.90;2380.80
49052;DHT22;34866;48.670;18.260;2023-08-21T05:23:52;487.10;2380.80
49052;DHT22;34866;48.670;18.260;2023-08-21T05:26:19;487.10;2380.80
49052;DHT22;34866;48.670;18.260;2023-08-21T05:28:55;487.10;2380.80
49052;DHT22;34866;48.670;18.260;2023-08-21T05:31:42;487.20;2380.80
49052;DHT22;34866;48.670;18.260;2023-08-21T05:34:18;487.30;2380.80
49052;DHT22;34866;48.670;18.260;2023-08-21T05:36:43;512.00;2380.80
49052;DHT22;34866;48.670;18.260;2023-08-21T05:39:12;512.30;2380.80
49052;DHT22;34866;48.670;18.260;2023-08-21T05:41:39;512.40;2380.80
49052;DHT22;34866;48.670;18.260;2023-08-21T05:44:27;512.60;2380.80
49052;DHT22;34866;48.670;18.260;2023-08-21T05:46:59;512.70;2380.80
49052;DHT22;34866;48.670;18.260;2023-08-21T05:50:23;537.80;2406.40
49052;DHT22;34866;48.670;18.260;2023-08-21T05:52:50;537.80;2406.40
49052;DHT22;34866;48.670;18.260;2023-08-21T05:55:18;537.80;2406.40
49052;DHT22;34866;48.670;18.260;2023-08-21T05:57:53;537.80;2406.40
49052;DHT22;34866;48.670;18.260;2023-08-21T06:00:42;537.90;1894.40
49052;DHT22;34866;48.670;18.260;2023-08-21T06:03:13;537.90;1715.20
49052;DHT22;34866;48.670;18.260;2023-08-21T06:05:40;538.00;1331.20
49052;DHT22;34866;48.670;18.260;2023-08-21T06:08:29;538.10;1203.20
49052;DHT22;34866;48.670;18.260;2023-08-21T06:11:10;538.30;896.00
49052;DHT22;34866;48.670;18.260;2023-08-21T06:14:15;538.40;614.40
49052;DHT22;34866;48.670;18.260;2023-08-21T06:17:04;563.20;409.60
49052;DHT22;34866;48.670;18.260;2023-08-21T06:19:32;563.30;512.00
49052;DHT22;34866;48.670;18.260;2023-08-21T06:22:56;563.40;128.00
49052;DHT22;34866;48.670;18.260;2023-08-21T06:26:02;563.60;128.00
49052;DHT22;34866;48.670;18.260;2023-08-21T06:29:06;563.70;128.00
49052;DHT22;34866;48.670;18.260;2023-08-21T06:32:15;563.90;128.00
49052;DHT22;34866;48.670;18.260;2023-08-21T06:34:41;564.00;128.00
49052;DHT22;34866;48.670;18.260;2023-08-21T06:37:28;564.00;128.00
49052;DHT22;34866;48.670;18.260;2023-08-21T06:40:04;588.80;128.00
49052;DHT22;34866;48.670;18.260;2023-08-21T06:42:34;589.50;128.00
49052;DHT22;34866;48.670;18.260;2023-08-21T06:45:06;589.20;128.00
49052;DHT22;34866;48.670;18.260;2023-08-21T06:47:34;589.20;128.00
49052;DHT22;34866;48.670;18.260;2023-08-21T06:50:02;589.60;128.00
49052;DHT22;34866;48.670;18.260;2023-08-21T06:52:52;589.40;128.00
49052;DHT22;34866;48.670;18.260;2023-08-21T06:55:19;589.40;128.00
49052;DHT22;34866;48.670;18.260;2023-08-21T06:58:08;589.50;128.00
49052;DHT22;34866;48.670;18.260;2023-08-21T07:00:34;589.60;128.00
49052;DHT22;34866;48.670;18.260;2023-08-21T07:03:25;589.60;128.00
49052;DHT22;34866;48.670;18.260;2023-08-21T07:05:56;614.50;128.00
49052;DHT22;34866;48.670;18.260;2023-08-21T07:08:23;614.60;128.00
49052;DHT22;34866;48.670;18.260;2023-08-21T07:14:22;614.80;128.00
49052;DHT22;34866;48.670;18.260;2023-08-21T07:16:54;615.00;128.00
49052;DHT22;34866;48.670;18.260;2023-08-21T07:20:01;615.00;128.00
49052;DHT22;34866;48.670;18.260;2023-08-21T07:22:50;615.20;128.00
49052;DHT22;34866;48.670;18.260;2023-08-21T07:25:39;615.30;128.00
49052;DHT22;34866;48.670;18.260;2023-08-21T07:28:23;640.00;691.20
49052;DHT22;34866;48.670;18.260;2023-08-21T07:31:07;640.10;128.00
49052;DHT22;34866;48.670;18.260;2023-08-21T07:33:33;640.20;512.00
49052;DHT22;34866;48.670;18.260;2023-08-21T07:36:03;640.40;128.00
49052;DHT22;34866;48.670;18.260;2023-08-21T07:39:09;640.40;332.80
49052;DHT22;34866;48.670;18.260;2023-08-21T07:41:39;640.50;128.00
49052;DHT22;34866;48.670;18.260;2023-08-21T07:44:30;640.60;128.00
49052;DHT22;34866;48.670;18.260;2023-08-21T07:46:57;640.70;128.00
49052;DHT22;34866;48.670;18.260;2023-08-21T07:49:27;640.80;128.00
49052;DHT22;34866;48.670;18.260;2023-08-21T07:51:53;665.80;153.60
49052;DHT22;34866;48.670;18.260;2023-08-21T07:54:24;665.70;153.60
49052;DHT22;34866;48.670;18.260;2023-08-21T07:56:52;665.70;153.60
49052;DHT22;34866;48.670;18.260;2023-08-21T07:59:38;665.70;153.60
49052;DHT22;34866;48.670;18.260;2023-08-21T08:02:25;666.00;153.60
49052;DHT22;34866;48.670;18.260;2023-08-21T08:05:07;666.10;153.60
49052;DHT22;34866;48.670;18.260;2023-08-21T08:07:34;666.30;153.60
49052;DHT22;34866;48.670;18.260;2023-08-21T08:10:21;666.20;153.60
49052;DHT22;34866;48.670;18.260;2023-08-21T08:12:58;666.10;153.60
49052;DHT22;34866;48.670;18.260;2023-08-21T08:15:30;666.40;153.60
49052;DHT22;34866;48.670;18.260;2023-08-21T08:18:17;666.50;153.60
49052;DHT22;34866;48.670;18.260;2023-08-21T08:20:58;666.50;153.60
49052;DHT22;34866;48.670;18.260;2023-08-21T08:23:27;691.40;153.60
49052;DHT22;34866;48.670;18.260;2023-08-21T08:25:55;691.20;153.60
49052;DHT22;34866;48.670;18.260;2023-08-21T08:28:43;691.30;153.60
49052;DHT22;34866;48.670;18.260;2023-08-21T08:31:17;691.50;153.60
49052;DHT22;34866;48.670;18.260;2023-08-21T08:34:24;691.70;153.60
49052;DHT22;34866;48.670;18.260;2023-08-21T08:37:45;691.70;153.60
49052;DHT22;34866;48.670;18.260;2023-08-21T08:40:33;691.90;153.60
49052;DHT22;34866;48.670;18.260;2023-08-21T08:43:41;691.90;153.60
49052;DHT22;34866;48.670;18.260;2023-08-21T08:47:12;692.00;153.60
49052;DHT22;34866;48.670;18.260;2023-08-21T08:50:34;716.80;179.20
49052;DHT22;34866;48.670;18.260;2023-08-21T08:56:11;717.00;179.20
49052;DHT22;34866;48.670;18.260;2023-08-21T08:59:21;716.90;179.20
49052;DHT22;34866;48.670;18.260;2023-08-21T09:02:29;717.10;179.20
49052;DHT22;34866;48.670;18.260;2023-08-21T09:05:19;717.50;179.20
49052;DHT22;34866;48.670;18.260;2023-08-21T09:07:45;717.50;179.20
49052;DHT22;34866;48.670;18.260;2023-08-21T09:10:16;717.60;179.20
49052;DHT22;34866;48.670;18.260;2023-08-21T09:12:47;717.60;179.20
49052;DHT22;34866;48.670;18.260;2023-08-21T09:15:14;717.70;563.20
49052;DHT22;34866;48.670;18.260;2023-08-21T09:17:42;742.40;691.20
49052;DHT22;34866;48.670;18.260;2023-08-21T09:20:08;742.40;204.80
49052;DHT22;34866;48.670;18.260;2023-08-21T09:22:36;742.50;204.80
49052;DHT22;34866;48.670;18.260;2023-08-21T09:25:08;742.60;204.80
49052;DHT22;34866;48.670;18.260;2023-08-21T09:27:41;742.60;204.80
49052;DHT22;34866;48.670;18.260;2023-08-21T09:30:14;742.50;614.40
49052;DHT22;34866;48.670;18.260;2023-08-21T09:33:00;717.60;332.80
49052;DHT22;34866;48.670;18.260;2023-08-21T09:35:43;742.40;486.40
49052;DHT22;34866;48.670;18.260;2023-08-21T09:38:38;742.60;204.80
49052;DHT22;34866;48.670;18.260;2023-08-21T09:41:29;742.90;204.80
49052;DHT22;34866;48.670;18.260;2023-08-21T09:44:25;743.10;204.80
49052;DHT22;34866;48.670;18.260;2023-08-21T09:46:53;742.90;204.80
49052;DHT22;34866;48.670;18.260;2023-08-21T09:49:41;743.00;204.80
49052;DHT22;34866;48.670;18.260;2023-08-21T09:52:30;743.30;204.80
49052;DHT22;34866;48.670;18.260;2023-08-21T09:54:57;743.20;204.80
49052;DHT22;34866;48.670;18.260;2023-08-21T09:57:45;743.20;204.80
49052;DHT22;34866;48.670;18.260;2023-08-21T10:00:11;768.10;204.80
49052;DHT22;34866;48.670;18.260;2023-08-21T10:03:32;768.20;204.80
49052;DHT22;34866;48.670;18.260;2023-08-21T10:06:54;768.20;204.80
49052;DHT22;34866;48.670;18.260;2023-08-21T10:15:44;768.30;204.80
49052;DHT22;34866;48.670;18.260;2023-08-21T10:18:30;768.20;204.80
49052;DHT22;34866;48.670;18.260;2023-08-21T10:20:56;768.40;204.80
49052;DHT22;34866;48.670;18.260;2023-08-21T10:23:38;768.70;204.80
49052;DHT22;34866;48.670;18.260;2023-08-21T10:26:38;768.70;204.80
49052;DHT22;34866;48.670;18.260;2023-08-21T10:29:11;768.70;204.80
49052;DHT22;34866;48.670;18.260;2023-08-21T10:35:21;793.90;230.40
49052;DHT22;34866;48.670;18.260;2023-08-21T10:39:00;794.00;230.40
49052;DHT22;34866;48.670;18.260;2023-08-21T10:42:12;793.90;230.40
49052;DHT22;34866;48.670;18.260;2023-08-21T10:45:25;793.70;230.40
49052;DHT22;34866;48.670;18.260;2023-08-21T10:48:35;793.90;230.40
49052;DHT22;34866;48.670;18.260;2023-08-21T10:51:51;794.00;230.40
49052;DHT22;34866;48.670;18.260;2023-08-21T10:55:02;793.80;230.40
49052;DHT22;34866;48.670;18.260;2023-08-21T11:15:41;794.40;230.40
49052;DHT22;34866;48.670;18.260;2023-08-21T11:33:48;794.50;230.40
49052;DHT22;34866;48.670;18.260;2023-08-21T11:37:24;819.20;230.40
49052;DHT22;34866;48.670;18.260;2023-08-21T11:40:09;819.40;230.40
49052;DHT22;34866;48.670;18.260;2023-08-21T11:42:34;819.70;230.40
49052;DHT22;34866;48.670;18.260;2023-08-21T11:45:03;819.70;230.40
49052;DHT22;34866;48.670;18.260;2023-08-21T11:51:11;819.70;230.40
49052;DHT22;34866;48.670;18.260;2023-08-21T11:53:56;819.70;230.40
49052;DHT22;34866;48.670;18.260;2023-08-21T11:56:49;819.90;230.40
49052;DHT22;34866;48.670;18.260;2023-08-21T11:59:53;819.80;230.40
49052;DHT22;34866;48.670;18.260;2023-08-21T12:02:37;819.90;230.40
49052;DHT22;34866;48.670;18.260;2023-08-21T12:05:04;820.00;230.40
49052;DHT22;34866;48.670;18.260;2023-08-21T12:07:32;819.70;230.40
49052;DHT22;34866;48.670;18.260;2023-08-21T12:09:59;819.40;230.40
49052;DHT22;34866;48.670;18.260;2023-08-21T12:12:30;819.60;230.40
49052;DHT22;34866;48.670;18.260;2023-08-21T12:15:47;819.90;230.40
49052;DHT22;34866;48.670;18.260;2023-08-21T12:18:32;819.90;230.40
49052;DHT22;34866;48.670;18.260;2023-08-21T12:20:59;820.10;230.40
49052;DHT22;34866;48.670;18.260;2023-08-21T12:23:52;819.60;230.40
49052;DHT22;34866;48.670;18.260;2023-08-21T12:26:37;819.80;230.40
49052;DHT22;34866;48.670;18.260;2023-08-21T12:29:04;819.70;230.40
49052;DHT22;34866;48.670;18.260;2023-08-21T12:31:29;819.80;230.40
49052;DHT22;34866;48.670;18.260;2023-08-21T12:34:04;819.50;230.40
49052;DHT22;34866;48.670;18.260;2023-08-21T12:39:17;819.90;230.40
49052;DHT22;34866;48.670;18.260;2023-08-21T12:44:58;819.60;230.40
49052;DHT22;34866;48.670;18.260;2023-08-21T12:56:36;819.80;230.40
49052;DHT22;34866;48.670;18.260;2023-08-21T13:09:29;819.70;230.40
49052;DHT22;34866;48.670;18.260;2023-08-21T13:17:45;819.70;230.40
49052;DHT22;34866;48.670;18.260;2023-08-21T13:20:13;844.90;256.00
49052;DHT22;34866;48.670;18.260;2023-08-21T13:26:27;819.90;230.40
49052;DHT22;34866;48.670;18.260;2023-08-21T13:32:12;820.10;230.40
49052;DHT22;34866;48.670;18.260;2023-08-21T13:46:34;819.80;230.40
49052;DHT22;34866;48.670;18.260;2023-08-21T13:49:52;819.80;230.40
49052;DHT22;34866;48.670;18.260;2023-08-21T13:52:30;819.70;230.40
49052;DHT22;34866;48.670;18.260;2023-08-21T14:07:11;819.60;230.40
49052;DHT22;34866;48.670;18.260;2023-08-21T14:16:48;819.80;230.40
49052;DHT22;34866;48.670;18.260;2023-08-21T14:29:04;819.90;230.40
49052;DHT22;34866;48.670;18.260;2023-08-21T14:32:01;819.70;230.40
49052;DHT22;34866;48.670;18.260;2023-08-21T14:47:56;819.90;230.40
49052;DHT22;34866;48.670;18.260;2023-08-21T14:50:33;819.90;230.40
49052;DHT22;34866;48.670;18.260;2023-08-21T15:12:10;820.10;230.40
49052;DHT22;34866;48.670;18.260;2023-08-21T15:17:59;819.90;230.40
49052;DHT22;34866;48.670;18.260;2023-08-21T15:20:27;820.10;230.40
49052;DHT22;34866;48.670;18.260;2023-08-21T15:25:47;845.20;256.00
49052;DHT22;34866;48.670;18.260;2023-08-21T15:28:13;845.00;256.00
49052;DHT22;34866;48.670;18.260;2023-08-21T15:30:39;845.60;256.00
49052;DHT22;34866;48.670;18.260;2023-08-21T15:33:06;845.10;256.00
49052;DHT22;34866;48.670;18.260;2023-08-21T15:35:50;845.10;256.00
49052;DHT22;34866;48.670;18.260;2023-08-21T15:38:16;845.20;256.00
49052;DHT22;34866;48.670;18.260;2023-08-21T15:40:42;845.30;256.00
49052;DHT22;34866;48.670;18.260;2023-08-21T15:43:26;845.30;256.00
49052;DHT22;34866;48.670;18.260;2023-08-21T15:45:54;870.50;256.00
49052;DHT22;34866;48.670;18.260;2023-08-21T15:48:35;845.70;256.00
49052;DHT22;34866;48.670;18.260;2023-08-21T15:51:02;845.70;256.00
49052;DHT22;34866;48.670;18.260;2023-08-21T15:53:28;845.40;256.00
49052;DHT22;34866;48.670;18.260;2023-08-21T15:56:09;845.40;256.00
49052;DHT22;34866;48.670;18.260;2023-08-21T15:58:59;845.20;256.00
49052;DHT22;34866;48.670;18.260;2023-08-21T16:01:57;820.10;230.40
49052;DHT22;34866;48.670;18.260;2023-08-21T16:46:52;794.30;230.40
49052;DHT22;34866;48.670;18.260;2023-08-21T17:26:02;743.00;204.80
49052;DHT22;34866;48.670;18.260;2023-08-21T17:29:41;742.80;230.40
49052;DHT22;34866;48.670;18.260;2023-08-21T17:33:12;742.70;204.80
49052;DHT22;34866;48.670;18.260;2023-08-21T17:50:51;717.70;179.20
49052;DHT22;34866;48.670;18.260;2023-08-21T17:54:32;717.60;179.20
49052;DHT22;34866;48.670;18.260;2023-08-21T18:01:08;717.20;179.20
49052;DHT22;34866;48.670;18.260;2023-08-21T18:04:50;717.00;179.20
49052;DHT22;34866;48.670;18.260;2023-08-21T21:07:26;589.70;128.00
